• Join FlightAware (Why Join?)
  • Login
  • US Flag 
Trick or treat! (Boo!!) 
12:00AM EDT


 

Airport Tracker/Info


-or-


 

Live Flight TrackerFlight Track Log ✈ MSR663 ✈ 13-May-2013 ✈ HECA / CAI - OEJN / JED

Flight Track Log - Related Links

Times and Time Zones

All times are in EDT time to prevent confusion due to time zone crossing. See the MSR663 flight status page for this flight to view local times or setup timezone preferences in your user account.

Time Position Orientation Groundspeed Altitude Reporting Facility
EDT Latitude Longitude Course Direction KTS MPH feet Rate Location/Type
06:02PM 28.6016 32.9191 139° Southeast  Level Estimated
06:03PM 28.5060 33.0122 139° Southeast  Level Estimated
06:04PM 28.4104 33.1052 139° Southeast  Level Estimated
06:05PM 28.3147 33.1980 140° Southeast  Level Estimated
06:06PM 28.2189 33.2906 140° Southeast  Level Estimated
06:07PM 28.1231 33.3830 140° Southeast  Level Estimated
06:08PM 28.0272 33.4753 140° Southeast  Level Estimated
06:09PM 27.9313 33.5675 140° Southeast  Level Estimated
06:10PM 27.8353 33.6594 140° Southeast  Level Estimated
06:11PM 27.7392 33.7512 140° Southeast  Level Estimated
06:12PM 27.6430 33.8428 140° Southeast  Level Estimated
06:13PM 27.5469 33.9343 140° Southeast  Level Estimated
06:14PM 27.4506 34.0256 140° Southeast  Level Estimated
06:15PM 27.3543 34.1168 140° Southeast  Level Estimated
06:16PM 27.2579 34.2077 140° Southeast  Level Estimated
06:17PM 27.1615 34.2986 140° Southeast  Level Estimated
06:18PM 27.0650 34.3893 140° Southeast  Level Estimated
06:19PM 26.9685 34.4798 140° Southeast  Level Estimated
06:20PM 26.8718 34.5702 140° Southeast  Level Estimated
06:21PM 26.7752 34.6604 140° Southeast  Level Estimated
06:22PM 26.6785 34.7504 140° Southeast  Level Estimated
06:23PM 26.5817 34.8403 140° Southeast  Level Estimated
06:24PM 26.4848 34.9301 140° Southeast  Level Estimated
06:25PM 26.3880 35.0197 140° Southeast  Level Estimated
06:26PM 26.2910 35.1091 140° Southeast  Level Estimated
06:27PM 26.1940 35.1985 140° Southeast  Level Estimated
06:28PM 26.0970 35.2876 140° Southeast  Level Estimated
06:29PM 25.9998 35.3766 141° Southeast  Level Estimated
06:30PM 25.9027 35.4655 141° Southeast  Level Estimated
06:31PM 25.8055 35.5542 141° Southeast  Level Estimated
06:32PM 25.7082 35.6428 141° Southeast  Level Estimated
06:33PM 25.6109 35.7312 141° Southeast  Level Estimated
06:34PM 25.5135 35.8195 141° Southeast  Level Estimated
06:35PM 25.4160 35.9076 141° Southeast  Level Estimated
06:36PM 25.3186 35.9956 141° Southeast  Level Estimated
06:37PM 25.2210 36.0835 141° Southeast  Level Estimated
06:38PM 25.1234 36.1712 141° Southeast  Level Estimated
06:39PM 25.0258 36.2588 141° Southeast  Level Estimated
06:40PM 24.9281 36.3462 141° Southeast  Level Estimated
06:41PM 24.8304 36.4335 141° Southeast  Level Estimated
06:42PM 24.7326 36.5206 141° Southeast  Level Estimated
06:43PM 24.6347 36.6077 141° Southeast  Level Estimated
06:44PM 24.5368 36.6945 141° Southeast  Level Estimated
06:45PM 24.4389 36.7813 141° Southeast  Level Estimated
06:46PM 24.3409 36.8679 141° Southeast  Level Estimated
06:47PM 24.2429 36.9544 141° Southeast  Level Estimated
06:48PM 24.1448 37.0407 141° Southeast  Level Estimated
06:49PM 24.0466 37.1269 141° Southeast  Level Estimated
06:50PM 23.9485 37.2130 141° Southeast  Level Estimated
06:51PM 23.8502 37.2990 141° Southeast  Level Estimated
06:52PM 23.7519 37.3848 141° Southeast  Level Estimated
06:53PM 23.6536 37.4705 141° Southeast  Level Estimated
06:54PM 23.5552 37.5560 141° Southeast  Level Estimated
06:55PM 23.4568 37.6415 141° Southeast  Level Estimated
06:56PM 23.3584 37.7268 141° Southeast  Level Estimated
06:57PM 23.2598 37.8120 142° Southeast  Level Estimated
06:58PM 23.1613 37.8970 142° Southeast  Level Estimated
06:59PM 23.0627 37.9820 142° Southeast  Level Estimated
07:00PM 22.9640 38.0668 142° Southeast  Level Estimated
07:01PM 22.8653 38.1515 142° Southeast  Level Estimated
07:02PM 22.7666 38.2360 142° Southeast  Level Estimated
07:03PM 22.6678 38.3204 142° Southeast  Level Estimated
07:04PM 22.5690 38.4048 142° Southeast  Level Estimated
07:05PM 22.4701 38.4890 142° Southeast  Level Estimated
07:06PM 22.3711 38.5730 142° Southeast  Level Estimated
07:07PM 22.2722 38.6570 142° Southeast  Level Estimated
07:08PM 22.1732 38.7408 142° Southeast  Level Estimated
07:09PM 22.0741 38.8246 142° Southeast  Level Estimated
07:10PM 21.9750 38.9081 142° Southeast  Level Estimated
07:11PM 21.8759 38.9916 142° Southeast  Level Estimated
07:12PM 21.7767 39.0750 142° Southeast  Level Estimated
07:13PM 21.6796 39.1565 142° Southeast  Level Estimated
07:14PM 21.6796 39.1565 317° Northwest  Level Estimated
07:15PM 21.6796 39.1565 317° Northwest  Level Estimated
07:15PM 21.5240 39.1900 317° Northwest 172 198 2,500  Level FlightAware
07:16PM 21.6796 39.1565 317° Northwest  Level Estimated
07:16PM 21.5440 39.1820 340° North 167 192 2,100  Level FlightAware
07:16PM 21.5610 39.1750 339° North 169 194 1,800 -780 Descending FlightAware
07:17PM 21.5800 39.1670 339° North 166 191 1,400 -780 Descending FlightAware
07:17PM 21.5970 39.1600 339° North 154 177 1,100 -780 Descending FlightAware
07:18PM 21.6160 39.1530 341° North 151 174 700 -480 Descending FlightAware
07:18PM 21.6360 39.1440 337° Northwest 150 173 600 -480 Descending FlightAware
07:19PM 21.6560 39.1360 340° North 149 171 200 -840 Descending FlightAware
07:21PM 21.6796 39.1565 39° Northeast  Level Estimated
07:22PM 21.6796 39.1565 317° Northwest  Level Estimated
07:23PM 21.6796 39.1565 317° Northwest  Level Estimated
07:24PM 21.6796 39.1565 317° Northwest  Level Estimated
07:25PM 21.6796 39.1565 317° Northwest  Level Estimated
07:26PM 21.6796 39.1565 317° Northwest  Level Estimated
07:27PM 21.6796 39.1565 317° Northwest  Level Estimated
07:28PM 21.6796 39.1565 317° Northwest  Level Estimated
07:29PM 21.6796 39.1565 317° Northwest  Level Estimated